Time;durP1;ratioP1;P1;durP2;ratioP2;P2;SDS_P1;SDS_P2;PMS_P1;PMS_P2;Temp;Humidity;BMP_temperature;BMP_pressure;BME280_temperature;BME280_humidity;BME280_pressure;Samples;Min_cycle;Max_cycle;Signal;HPM_P1;HPM_P2
2021/12/11 00:01:42;;;;;;;3.70;3.35;;;22.70;32.70;;;;;;5102330;28;20733;-65
2021/12/11 00:04:17;;;;;;;4.05;3.65;;;22.60;32.70;;;;;;5086319;28;20105;-65
2021/12/11 00:06:48;;;;;;;4.95;3.70;;;22.60;32.70;;;;;;5108773;28;20568;-65
2021/12/11 00:09:29;;;;;;;;;;;22.60;32.70;;;;;;5112259;28;20086;-65
2021/12/11 00:12:00;;;;;;;4.13;3.67;;;22.60;32.70;;;;;;5102755;28;19959;-65
2021/12/11 00:14:30;;;;;;;4.28;3.85;;;22.60;32.70;;;;;;5109260;28;20056;-65
2021/12/11 00:16:58;;;;;;;4.93;3.35;;;22.60;32.70;;;;;;5112182;28;20250;-65
2021/12/11 00:19:32;;;;;;;3.85;3.40;;;22.60;32.80;;;;;;5111090;28;20058;-65
2021/12/11 00:22:13;;;;;;;4.28;3.80;;;22.60;32.80;;;;;;5104860;28;20047;-65
2021/12/11 00:24:41;;;;;;;3.47;3.17;;;22.60;32.80;;;;;;5108615;28;20082;-65
2021/12/11 00:27:16;;;;;;;4.25;3.70;;;22.60;32.70;;;;;;5111647;28;20081;-65
2021/12/11 00:29:43;;;;;;;3.20;2.90;;;22.60;32.80;;;;;;5111675;28;20051;-65
2021/12/11 00:32:19;;;;;;;5.50;3.60;;;22.60;32.70;;;;;;5101043;28;20113;-65
2021/12/11 00:34:47;;;;;;;3.78;3.22;;;22.60;32.80;;;;;;5110892;28;20082;-65
2021/12/11 00:37:18;;;;;;;3.78;3.25;;;22.60;32.80;;;;;;5111597;28;20101;-65
2021/12/11 00:39:52;;;;;;;4.30;3.85;;;22.50;32.80;;;;;;5110459;28;20051;-65
2021/12/11 00:42:22;;;;;;;4.13;3.70;;;22.50;32.80;;;;;;5100254;28;20082;-65
2021/12/11 00:44:56;;;;;;;3.63;3.20;;;22.60;32.80;;;;;;5111116;28;20044;-65
2021/12/11 00:47:27;;;;;;;3.53;3.22;;;22.50;32.80;;;;;;5111352;28;20079;-65
2021/12/11 00:49:58;;;;;;;3.50;3.20;;;22.60;32.80;;;;;;5110891;28;20054;-64
2021/12/11 00:52:34;;;;;;;4.15;3.75;;;22.60;33.40;;;;;;5102182;28;20554;-65
2021/12/11 00:55:07;;;;;;;4.32;3.92;;;22.50;32.70;;;;;;5111087;28;20504;-65
2021/12/11 00:57:35;;;;;;;4.13;3.72;;;22.50;32.80;;;;;;5111273;28;20456;-65
2021/12/11 01:00:10;;;;;;;3.80;3.42;;;22.50;32.80;;;;;;5110913;28;20135;-64
2021/12/11 01:02:38;;;;;;;4.00;3.53;;;22.50;32.80;;;;;;5084408;28;20060;-65
2021/12/11 01:05:09;;;;;;;6.15;3.58;;;22.50;32.80;;;;;;5110694;28;20051;-66
2021/12/11 01:07:37;;;;;;;3.80;3.40;;;22.50;32.80;;;;;;5092138;28;20086;-65
2021/12/11 01:10:14;;;;;;;3.95;3.50;;;22.50;32.80;;;;;;5110718;28;20481;-65
2021/12/11 01:12:50;;;;;;;3.85;3.47;;;22.50;32.80;;;;;;5102270;28;20098;-65
2021/12/11 01:15:33;;;;;;;4.90;3.55;;;22.60;32.90;;;;;;5111247;28;20043;-65
2021/12/11 01:18:28;;;;;;;3.42;3.13;;;22.50;32.80;;;;;;5092223;28;20403;-65
2021/12/11 01:21:27;;;;;;;3.95;3.58;;;22.60;32.90;;;;;;5110401;28;20124;-64
2021/12/11 01:24:12;;;;;;;3.95;3.63;;;22.50;32.80;;;;;;5088695;28;20117;-65
2021/12/11 01:26:48;;;;;;;4.20;3.55;;;22.50;32.80;;;;;;5116465;28;20052;-65
2021/12/11 01:29:19;;;;;;;4.18;3.60;;;22.60;32.80;;;;;;5108798;28;20562;-65
2021/12/11 01:31:50;;;;;;;4.13;3.75;;;22.50;32.80;;;;;;5090043;28;20066;-65
2021/12/11 01:34:19;;;;;;;5.50;3.95;;;22.50;32.80;;;;;;5089863;28;20089;-65
2021/12/11 01:36:47;;;;;;;3.20;2.90;;;22.60;32.80;;;;;;5110093;28;20138;-64
2021/12/11 01:39:19;;;;;;;4.20;3.38;;;22.60;32.80;;;;;;5110436;28;20078;-64
2021/12/11 01:41:48;;;;;;;3.55;3.10;;;22.50;32.70;;;;;;5102969;28;20474;-65
2021/12/11 01:44:21;;;;;;;3.50;3.05;;;22.50;32.80;;;;;;5107602;28;20448;-65
2021/12/11 01:46:48;;;;;;;4.15;3.33;;;22.50;32.80;;;;;;5110153;28;20057;-65
2021/12/11 01:49:20;;;;;;;5.07;3.67;;;22.50;32.80;;;;;;5110127;28;20527;-65
2021/12/11 01:51:53;;;;;;;4.45;4.05;;;22.50;32.80;;;;;;5082140;28;20097;-65
2021/12/11 01:54:28;;;;;;;3.95;3.50;;;22.50;32.80;;;;;;5104418;28;20101;-64
2021/12/11 01:57:00;;;;;;;3.75;3.33;;;22.50;32.80;;;;;;5109462;28;20052;-65
2021/12/11 01:59:36;;;;;;;4.00;3.60;;;22.50;32.80;;;;;;5110144;28;20047;-65
2021/12/11 02:02:12;;;;;;;4.80;3.60;;;22.50;32.80;;;;;;5102061;28;20548;-64
2021/12/11 02:04:43;;;;;;;4.00;3.50;;;22.50;32.80;;;;;;5107541;28;20121;-65
2021/12/11 02:07:12;;;;;;;;;;;22.50;32.80;;;;;;5110153;28;20120;-65
2021/12/11 02:09:44;;;;;;;4.57;3.60;;;22.50;32.80;;;;;;5110074;28;19919;-64
2021/12/11 02:12:17;;;;;;;4.13;3.70;;;22.50;32.90;;;;;;5102043;28;20048;-65
2021/12/11 02:14:50;;;;;;;4.13;3.72;;;22.50;32.80;;;;;;5106859;28;20510;-64
2021/12/11 02:17:22;;;;;;;4.15;3.75;;;22.40;32.80;;;;;;5109108;28;20083;-63
2021/12/11 02:19:52;;;;;;;3.85;3.40;;;22.50;33.40;;;;;;5109487;28;20048;-64
2021/12/11 02:22:25;;;;;;;5.47;4.10;;;22.50;32.90;;;;;;5099922;28;20488;-64
2021/12/11 02:24:58;;;;;;;4.32;3.90;;;22.40;32.80;;;;;;5109609;28;20085;-63
2021/12/11 02:27:34;;;;;;;3.90;3.03;;;22.40;32.90;;;;;;5109356;28;20051;-66
2021/12/11 02:30:27;;;;;;;3.70;3.28;;;22.40;32.80;;;;;;5108715;28;20458;-66
2021/12/11 02:33:25;;;;;;;3.97;3.22;;;22.40;32.80;;;;;;5095557;28;20130;-66
2021/12/11 02:36:10;;;;;;;3.85;3.42;;;22.40;32.90;;;;;;5094454;28;20044;-66
2021/12/11 02:39:01;;;;;;;3.38;3.08;;;22.40;32.90;;;;;;5109438;28;20086;-66
2021/12/11 02:41:49;;;;;;;4.03;3.58;;;22.40;32.90;;;;;;5105349;28;20584;-66
2021/12/11 02:44:39;;;;;;;4.70;3.78;;;22.40;32.90;;;;;;5088021;28;20158;-66
2021/12/11 02:47:15;;;;;;;4.25;3.85;;;22.40;32.90;;;;;;5090904;28;20071;-66
2021/12/11 02:49:53;;;;;;;4.38;3.88;;;22.40;32.90;;;;;;5109105;28;20125;-66
2021/12/11 02:52:35;;;;;;;3.75;3.40;;;22.40;32.90;;;;;;5100361;28;20059;-66
2021/12/11 02:55:20;;;;;;;4.22;3.80;;;22.40;32.90;;;;;;5108846;28;20113;-66
2021/12/11 02:57:52;;;;;;;4.07;3.65;;;22.40;32.90;;;;;;5108993;28;20138;-66
2021/12/11 03:00:34;;;;;;;4.28;3.70;;;22.40;33.00;;;;;;5108802;28;20078;-66
2021/12/11 03:03:06;;;;;;;4.07;3.30;;;22.40;33.00;;;;;;5082632;28;20051;-66
2021/12/11 03:05:46;;;;;;;3.72;3.40;;;22.40;32.90;;;;;;5090674;28;20082;-66
2021/12/11 03:08:16;;;;;;;3.95;3.55;;;22.40;33.00;;;;;;5108340;28;20051;-66
2021/12/11 03:10:48;;;;;;;4.45;3.92;;;22.40;32.90;;;;;;5109015;28;20650;-66
2021/12/11 03:13:16;;;;;;;5.40;3.60;;;22.40;32.90;;;;;;5095118;28;20097;-66
2021/12/11 03:15:43;;;;;;;4.13;3.60;;;22.40;32.90;;;;;;5108317;28;20131;-66
2021/12/11 03:18:11;;;;;;;4.25;3.85;;;22.40;32.90;;;;;;5108551;28;20047;-66
2021/12/11 03:20:40;;;;;;;4.40;3.50;;;22.40;32.90;;;;;;5108551;28;20074;-66
2021/12/11 03:23:08;;;;;;;3.75;3.45;;;22.40;32.90;;;;;;5096646;28;20052;-66
2021/12/11 03:25:36;;;;;;;3.83;3.53;;;22.40;32.90;;;;;;5107903;28;20116;-66
2021/12/11 03:28:04;;;;;;;3.78;3.45;;;22.40;32.90;;;;;;5107984;28;20083;-66
2021/12/11 03:30:35;;;;;;;4.90;4.10;;;22.40;32.90;;;;;;5108267;28;20479;-66
2021/12/11 03:33:09;;;;;;;4.35;3.90;;;22.40;32.90;;;;;;5094290;28;20074;-66
2021/12/11 03:35:37;;;;;;;4.18;3.78;;;22.40;32.90;;;;;;5107876;28;20381;-66
2021/12/11 03:38:05;;;;;;;3.95;3.55;;;22.40;32.90;;;;;;5108073;28;20079;-66
2021/12/11 03:40:33;;;;;;;3.55;3.25;;;22.40;32.90;;;;;;5089559;28;20044;-66
2021/12/11 03:43:05;;;;;;;4.28;3.53;;;22.40;32.90;;;;;;5098362;28;20075;-66
2021/12/11 03:45:37;;;;;;;3.90;3.50;;;22.40;32.90;;;;;;5108437;28;20373;-66
2021/12/11 03:48:18;;;;;;;4.10;3.67;;;22.40;32.90;;;;;;5107731;28;20050;-66
2021/12/11 03:50:46;;;;;;;4.20;3.60;;;22.40;32.90;;;;;;5108170;28;20044;-66
2021/12/11 03:53:15;;;;;;;3.88;3.13;;;22.40;32.90;;;;;;5096646;28;20055;-66
2021/12/11 03:55:47;;;;;;;4.38;3.97;;;22.40;33.00;;;;;;5108230;28;20078;-66
2021/12/11 03:58:14;;;;;;;3.58;3.28;;;22.40;32.90;;;;;;5107667;28;20043;-66
2021/12/11 04:01:00;;;;;;;3.80;3.35;;;22.30;32.90;;;;;;5107926;28;20134;-66
2021/12/11 04:03:30;;;;;;;4.05;3.38;;;22.30;32.90;;;;;;5099800;28;20583;-66
2021/12/11 04:06:00;;;;;;;4.50;4.10;;;22.30;32.90;;;;;;5073599;28;20082;-66
2021/12/11 04:08:34;;;;;;;4.00;3.60;;;22.30;32.90;;;;;;5107844;28;20489;-66
2021/12/11 04:11:01;;;;;;;4.13;3.25;;;22.30;33.00;;;;;;5107281;28;20079;-66
2021/12/11 04:13:28;;;;;;;3.78;3.38;;;22.30;33.00;;;;;;5081926;28;20078;-64
2021/12/11 04:15:56;;;;;;;5.10;3.67;;;22.30;33.00;;;;;;5089811;28;20134;-64
2021/12/11 04:18:23;;;;;;;3.70;3.40;;;22.30;33.00;;;;;;5107321;28;20432;-64
2021/12/11 04:20:51;;;;;;;5.40;3.90;;;22.30;33.00;;;;;;5107835;28;20128;-64
2021/12/11 04:23:19;;;;;;;3.65;3.17;;;22.30;33.00;;;;;;5091076;28;20142;-64
2021/12/11 04:25:49;;;;;;;4.40;3.60;;;22.30;33.00;;;;;;5107752;28;20039;-64
2021/12/11 04:28:18;;;;;;;4.43;3.35;;;22.30;33.00;;;;;;5089833;28;20551;-64
2021/12/11 04:30:48;;;;;;;3.65;3.35;;;22.30;33.00;;;;;;5107138;28;20040;-64
2021/12/11 04:33:16;;;;;;;4.18;3.78;;;22.30;33.00;;;;;;5094950;28;20051;-64
2021/12/11 04:35:43;;;;;;;4.15;3.70;;;22.30;33.00;;;;;;5107033;28;20047;-64
2021/12/11 04:38:13;;;;;;;5.28;3.67;;;22.30;33.10;;;;;;5107959;28;20123;-64
2021/12/11 04:40:44;;;;;;;3.97;3.55;;;22.30;33.10;;;;;;5107647;28;20051;-64
2021/12/11 04:43:16;;;;;;;4.03;3.33;;;22.30;33.10;;;;;;5097097;28;20087;-64
2021/12/11 04:46:04;;;;;;;4.40;3.53;;;22.30;33.10;;;;;;5107332;28;20057;-64
2021/12/11 04:48:56;;;;;;;4.18;3.78;;;22.30;33.10;;;;;;5107012;28;20054;-64
2021/12/11 04:51:37;;;;;;;3.45;3.15;;;22.30;33.10;;;;;;5102303;28;21058;-64
2021/12/11 05:00:06;;;;;;;3.38;3.08;;;22.30;33.10;;;;;;5110716;28;20078;-64
2021/12/11 05:02:52;;;;;;;3.70;3.28;;;22.30;33.10;;;;;;5104660;27;20043;-64
2021/12/11 05:05:50;;;;;;;3.60;3.25;;;22.30;33.10;;;;;;5131503;27;20730;-65
2021/12/11 05:08:37;;;;;;;3.75;3.35;;;22.30;33.10;;;;;;5124067;27;20485;-65
2021/12/11 05:11:01;;;;;;;3.30;2.97;;;22.30;33.10;;;;;;5111054;28;20043;-65
2021/12/11 05:13:30;;;;;;;4.03;3.38;;;22.30;33.10;;;;;;5083972;28;21052;-65
2021/12/11 05:16:01;;;;;;;4.40;3.75;;;22.30;33.10;;;;;;5111029;28;20097;-65
2021/12/11 05:18:31;;;;;;;4.30;3.67;;;22.30;33.10;;;;;;5110230;28;20086;-64
2021/12/11 05:21:03;;;;;;;4.30;3.67;;;22.30;33.10;;;;;;5109794;28;20480;-64
2021/12/11 05:23:31;;;;;;;3.78;3.28;;;22.30;33.60;;;;;;5103294;28;20510;-65
2021/12/11 05:25:58;;;;;;;3.65;3.08;;;22.30;33.00;;;;;;5110521;28;20134;-64
2021/12/11 05:28:26;;;;;;;4.05;3.65;;;22.30;33.10;;;;;;5110503;28;20069;-64
2021/12/11 05:30:56;;;;;;;3.55;3.25;;;22.30;33.10;;;;;;5092339;28;20087;-65
2021/12/11 05:33:24;;;;;;;3.88;3.45;;;22.30;33.10;;;;;;5097604;28;20055;-64
2021/12/11 05:35:51;;;;;;;4.53;3.58;;;22.30;33.10;;;;;;5110032;28;20046;-65
2021/12/11 05:38:21;;;;;;;3.60;3.30;;;22.30;33.10;;;;;;5110606;28;20079;-65
2021/12/11 05:40:53;;;;;;;4.13;3.28;;;22.20;33.00;;;;;;5110392;28;20576;-64
2021/12/11 05:43:21;;;;;;;3.13;2.83;;;22.20;33.00;;;;;;5098722;28;20055;-65
2021/12/11 05:45:49;;;;;;;3.60;3.30;;;22.20;33.10;;;;;;5109623;28;20075;-65
2021/12/11 05:48:17;;;;;;;4.28;3.33;;;22.20;33.10;;;;;;5110426;28;20056;-64
2021/12/11 05:50:49;;;;;;;3.67;3.25;;;22.20;33.10;;;;;;5110587;28;20047;-64
2021/12/11 05:53:17;;;;;;;4.10;3.50;;;22.20;33.10;;;;;;5101843;28;20074;-64
2021/12/11 05:55:48;;;;;;;3.72;3.33;;;22.20;33.10;;;;;;5109694;28;20051;-64
2021/12/11 05:58:24;;;;;;;4.18;3.55;;;22.20;33.10;;;;;;5110218;28;20460;-64
2021/12/11 06:00:53;;;;;;;4.43;3.42;;;22.20;33.10;;;;;;5110385;28;20043;-64
2021/12/11 06:03:21;;;;;;;3.75;3.00;;;22.20;33.10;;;;;;5101187;28;20047;-64
2021/12/11 06:05:48;;;;;;;3.90;3.50;;;22.20;33.10;;;;;;5109511;28;20082;-65
2021/12/11 06:08:15;;;;;;;4.20;3.65;;;22.20;32.90;;;;;;5110048;28;20104;-65
2021/12/11 06:10:42;;;;;;;4.10;3.40;;;22.20;32.80;;;;;;5108867;28;20488;-63
2021/12/11 06:13:10;;;;;;;4.85;3.60;;;22.20;32.80;;;;;;5107676;28;20074;-62
2021/12/11 06:15:39;;;;;;;3.65;3.35;;;22.20;32.70;;;;;;5097552;28;20101;-62
2021/12/11 06:18:09;;;;;;;3.80;3.40;;;22.20;32.60;;;;;;5115936;28;20052;-62
2021/12/11 06:20:37;;;;;;;4.47;3.60;;;22.20;32.60;;;;;;5109265;28;20145;-62
2021/12/11 06:23:08;;;;;;;4.13;3.70;;;22.20;32.40;;;;;;5090622;27;20130;-62
2021/12/11 06:25:37;;;;;;;4.53;3.50;;;22.30;32.40;;;;;;5100596;27;20500;-61
2021/12/11 06:28:06;;;;;;;4.38;3.63;;;22.30;32.30;;;;;;5089355;28;20091;-62
2021/12/11 06:30:34;;;;;;;4.53;3.40;;;22.30;32.30;;;;;;5071058;28;20082;-62
2021/12/11 06:33:03;;;;;;;5.18;3.80;;;22.40;32.30;;;;;;5097094;27;20048;-64
2021/12/11 06:35:43;;;;;;;3.47;2.90;;;22.40;32.30;;;;;;5108373;27;20104;-62
2021/12/11 06:38:14;;;;;;;3.78;3.28;;;22.30;32.20;;;;;;5105276;27;20048;-62
2021/12/11 06:40:42;;;;;;;3.75;3.25;;;22.30;32.20;;;;;;5100985;27;20122;-62
2021/12/11 06:43:09;;;;;;;5.00;3.80;;;22.30;32.20;;;;;;5094774;27;20138;-62
2021/12/11 06:45:37;;;;;;;3.70;3.40;;;22.40;32.20;;;;;;5101387;28;20093;-62
2021/12/11 06:48:05;;;;;;;4.10;3.35;;;22.40;32.20;;;;;;5097128;28;20044;-62
2021/12/11 06:50:34;;;;;;;6.20;3.67;;;22.30;32.20;;;;;;5096150;28;20050;-66
2021/12/11 06:53:07;;;;;;;3.92;3.30;;;22.40;32.30;;;;;;5085602;28;20455;-67
2021/12/11 06:55:35;;;;;;;3.53;3.00;;;22.40;32.80;;;;;;5115589;28;20447;-63
2021/12/11 06:58:02;;;;;;;5.35;4.05;;;22.40;33.00;;;;;;5114634;28;20097;-63
2021/12/11 07:00:30;;;;;;;4.03;3.45;;;22.40;32.90;;;;;;5097094;28;20055;-64
2021/12/11 07:02:58;;;;;;;4.03;3.45;;;22.40;33.10;;;;;;5098726;28;20051;-69
2021/12/11 07:05:25;;;;;;;4.72;3.60;;;22.50;33.30;;;;;;5094758;28;20048;-69
2021/12/11 07:07:52;;;;;;;4.43;3.80;;;22.50;33.40;;;;;;5100841;27;20039;-64
2021/12/11 07:10:20;;;;;;;4.65;3.78;;;22.60;33.60;;;;;;5095952;27;20097;-64
2021/12/11 07:12:50;;;;;;;4.28;3.42;;;22.60;33.90;;;;;;5201626;22;21003;-70
2021/12/11 07:15:18;;;;;;;3.78;3.08;;;22.70;34.20;;;;;;5027899;28;20497;-69
2021/12/11 07:21:06;;;;;;;3.50;3.20;;;22.70;33.90;;;;;;4785985;24;20106;-88
2021/12/11 07:24:05;;;;;;;3.78;3.40;;;22.80;34.00;;;;;;4774012;30;20492;-87
2021/12/11 07:58:29;;;;;;;5.60;3.88;;;23.40;33.30;;;;;;4737957;30;20110;-83
2021/12/11 08:24:48;;;;;;;4.30;3.90;;;23.70;32.50;;;;;;4781790;29;20059;-87
2021/12/11 09:02:15;;;;;;;6.45;4.70;;;24.20;31.80;;;;;;5324123;24;20062;-91
2021/12/11 09:04:58;;;;;;;5.50;4.40;;;24.20;31.80;;;;;;4782643;29;20063;-91
2021/12/11 09:36:20;;;;;;;7.80;5.00;;;24.50;31.70;;;;;;5839856;24;20112;31
2021/12/11 10:18:35;;;;;;;12.13;6.65;;;24.70;30.50;;;;;;5581139;24;20866;-67
2021/12/11 10:21:20;;;;;;;9.50;6.05;;;24.70;30.40;;;;;;4732328;30;20081;-64
2021/12/11 10:23:52;;;;;;;9.30;6.25;;;24.70;30.40;;;;;;4753004;30;20078;-62
2021/12/11 10:26:22;;;;;;;10.00;6.85;;;24.70;30.70;;;;;;4754584;30;20497;-65
2021/12/11 10:28:54;;;;;;;7.32;6.38;;;24.70;30.80;;;;;;4758971;30;20048;-62
2021/12/11 10:31:36;;;;;;;7.97;5.75;;;24.70;30.80;;;;;;4760168;29;20105;-66
2021/12/11 13:09:56;;;;;;;7.53;5.15;;;24.70;29.90;;;;;;5807381;24;20118;31
2021/12/11 13:12:32;;;;;;;6.82;5.05;;;24.70;30.00;;;;;;4714085;30;20146;-87
2021/12/11 13:15:11;;;;;;;9.20;4.88;;;24.80;30.10;;;;;;4688482;30;20053;-85
2021/12/11 13:17:49;;;;;;;5.03;4.20;;;24.70;30.00;;;;;;4700868;30;20075;-84
2021/12/11 13:20:55;;;;;;;6.18;4.65;;;24.70;30.00;;;;;;4698270;30;20068;-86
2021/12/11 13:23:25;;;;;;;5.22;4.25;;;24.70;30.00;;;;;;4698446;30;20049;-85
2021/12/11 13:25:59;;;;;;;5.43;4.45;;;24.70;30.00;;;;;;4692554;30;20246;-86
2021/12/11 13:28:35;;;;;;;5.25;4.25;;;24.80;30.00;;;;;;4718605;30;20072;-86
2021/12/11 13:34:48;;;;;;;5.55;4.40;;;24.80;30.10;;;;;;4724465;24;20061;-68
2021/12/11 13:37:19;;;;;;;4.38;3.65;;;24.80;30.00;;;;;;4717349;30;20495;-67
2021/12/11 13:39:49;;;;;;;5.13;3.83;;;24.80;30.00;;;;;;4716258;30;20127;-66
2021/12/11 13:42:19;;;;;;;;;;;24.80;30.00;;;;;;4697542;30;20057;-64
2021/12/11 13:44:52;;;;;;;6.70;4.72;;;24.80;30.00;;;;;;4692836;30;20010;-68
2021/12/11 13:47:22;;;;;;;4.60;3.75;;;24.80;30.00;;;;;;4707317;30;20123;-66
2021/12/11 13:49:52;;;;;;;6.50;3.72;;;24.90;30.00;;;;;;4707796;30;20060;-65
2021/12/11 13:52:20;;;;;;;6.20;3.85;;;24.80;30.00;;;;;;4704800;30;20108;-66
2021/12/11 13:54:50;;;;;;;4.53;3.83;;;24.80;29.90;;;;;;4696380;30;20085;-65
2021/12/11 13:57:24;;;;;;;5.45;4.35;;;24.80;29.80;;;;;;4691362;30;20116;-66
2021/12/11 13:59:57;;;;;;;6.90;3.63;;;24.80;29.70;;;;;;4705876;30;20057;-67
2021/12/11 14:02:25;;;;;;;4.43;3.58;;;24.80;29.60;;;;;;4714174;30;20057;-68
2021/12/11 14:04:56;;;;;;;4.40;3.67;;;24.80;29.60;;;;;;4702245;30;20503;-65
2021/12/11 14:07:26;;;;;;;4.30;3.78;;;24.80;30.00;;;;;;4710541;30;20506;-66
2021/12/11 14:09:58;;;;;;;;;;;24.80;29.50;;;;;;4713798;30;20053;-65
2021/12/11 14:12:28;;;;;;;4.07;3.67;;;24.80;29.40;;;;;;4713876;30;19934;-65
2021/12/11 14:14:58;;;;;;;4.38;3.92;;;24.70;29.40;;;;;;4703177;30;20057;-65
2021/12/11 14:17:27;;;;;;;3.97;3.58;;;24.70;29.40;;;;;;4709303;30;20106;-65
2021/12/11 14:19:54;;;;;;;3.35;3.00;;;24.70;29.30;;;;;;4713633;30;20152;-68
2021/12/11 14:22:23;;;;;;;4.38;3.80;;;24.70;29.30;;;;;;4713595;30;20580;-67
2021/12/11 14:24:52;;;;;;;4.30;3.80;;;24.70;29.30;;;;;;4703562;30;20115;-65
2021/12/11 14:27:20;;;;;;;5.72;3.88;;;24.70;29.30;;;;;;4708972;30;20574;-65
2021/12/11 14:29:52;;;;;;;4.70;3.83;;;24.70;29.30;;;;;;4713279;30;20057;-66
2021/12/11 14:32:23;;;;;;;4.18;3.50;;;24.70;29.30;;;;;;4726746;30;20065;-64
2021/12/11 14:34:52;;;;;;;3.97;3.58;;;24.70;29.30;;;;;;4716716;30;20092;-67
2021/12/11 14:37:20;;;;;;;4.03;3.63;;;24.70;29.30;;;;;;4720422;30;20136;-65
2021/12/11 14:39:48;;;;;;;4.53;3.88;;;24.60;29.20;;;;;;4713217;30;20053;-67
2021/12/11 14:42:20;;;;;;;4.38;3.70;;;24.60;29.20;;;;;;4713673;30;20385;-65
2021/12/11 14:44:49;;;;;;;5.43;3.60;;;24.60;29.20;;;;;;4701958;30;20148;-67
2021/12/11 14:47:17;;;;;;;4.00;3.60;;;24.60;29.20;;;;;;4722119;30;20091;-66
2021/12/11 14:49:46;;;;;;;4.70;4.07;;;24.60;29.20;;;;;;4713127;30;20306;-66
2021/12/11 14:52:17;;;;;;;4.00;3.60;;;24.60;29.20;;;;;;4712089;30;20139;-66
2021/12/11 14:54:45;;;;;;;6.18;4.13;;;24.60;29.20;;;;;;4705422;30;20141;-65
2021/12/11 14:57:15;;;;;;;4.97;4.00;;;24.60;29.20;;;;;;4708977;30;20578;-65
2021/12/11 14:59:50;;;;;;;4.07;3.58;;;24.50;29.20;;;;;;4712403;30;20057;-65
2021/12/11 15:02:26;;;;;;;4.85;3.97;;;24.50;29.20;;;;;;4713207;30;20140;-66
2021/12/11 15:04:57;;;;;;;6.10;4.32;;;24.50;29.10;;;;;;4702333;30;20466;-67
2021/12/11 15:07:26;;;;;;;;;;;24.50;29.20;;;;;;4708399;30;20056;-67
2021/12/11 15:09:56;;;;;;;;;;;24.50;29.20;;;;;;4712730;30;19977;-66
2021/12/11 15:12:25;;;;;;;5.75;3.65;;;24.50;29.20;;;;;;4713302;30;20030;-66
2021/12/11 15:14:52;;;;;;;5.00;4.22;;;24.50;29.20;;;;;;4717900;30;20464;-65
2021/12/11 15:17:23;;;;;;;4.78;4.15;;;24.50;29.20;;;;;;4708571;30;20065;-65
2021/12/11 15:20:06;;;;;;;5.35;3.60;;;24.50;29.20;;;;;;4726044;30;20129;-66
2021/12/11 15:22:33;;;;;;;6.97;4.28;;;24.50;29.20;;;;;;4712801;30;20147;-65
2021/12/11 15:25:02;;;;;;;5.35;4.22;;;24.40;29.20;;;;;;4703636;30;20486;-66
2021/12/11 15:27:31;;;;;;;3.92;3.42;;;24.40;29.20;;;;;;4709511;30;20093;-66
2021/12/11 15:30:05;;;;;;;5.10;3.88;;;24.40;29.20;;;;;;4712241;30;20107;-65
2021/12/11 15:32:32;;;;;;;5.05;4.15;;;24.40;29.20;;;;;;4712895;30;20209;-66
2021/12/11 15:35:01;;;;;;;5.45;3.80;;;24.40;29.20;;;;;;4705369;30;20061;-66
2021/12/11 15:37:28;;;;;;;4.85;3.60;;;24.40;29.20;;;;;;4708796;30;20480;-65
2021/12/11 15:39:57;;;;;;;4.13;3.50;;;24.40;29.20;;;;;;4711285;30;20057;-65
2021/12/11 15:42:24;;;;;;;5.10;4.05;;;24.40;29.20;;;;;;4713290;30;20061;-66
2021/12/11 15:44:58;;;;;;;4.93;3.75;;;24.40;29.10;;;;;;4703756;30;20504;-66
2021/12/11 15:47:28;;;;;;;4.32;3.40;;;24.40;29.10;;;;;;4708090;30;20056;-66
2021/12/11 15:49:55;;;;;;;5.03;3.60;;;24.40;29.20;;;;;;4712415;30;20080;-66
2021/12/11 15:52:23;;;;;;;4.07;3.28;;;24.40;29.20;;;;;;4712635;30;20487;-66
2021/12/11 15:54:52;;;;;;;4.03;3.63;;;24.40;29.20;;;;;;4702719;30;20111;-66
2021/12/11 15:57:20;;;;;;;4.88;3.47;;;24.40;29.10;;;;;;4708367;30;20168;-66
2021/12/11 15:59:49;;;;;;;4.28;3.80;;;24.40;29.20;;;;;;4712152;30;20096;-67
2021/12/11 16:02:22;;;;;;;3.85;3.53;;;24.40;29.10;;;;;;4712279;30;20133;-66
2021/12/11 16:04:52;;;;;;;4.95;3.92;;;24.40;29.10;;;;;;4700126;30;20144;-65
2021/12/11 16:07:22;;;;;;;4.17;3.77;;;24.40;29.10;;;;;;4708265;30;20068;-65
2021/12/11 16:09:51;;;;;;;4.13;3.70;;;24.40;29.10;;;;;;4711271;30;20333;-67
2021/12/11 16:12:22;;;;;;;4.32;3.47;;;24.40;29.00;;;;;;4712381;30;20136;-66
2021/12/11 16:15:05;;;;;;;4.00;3.60;;;24.40;29.00;;;;;;4702462;30;20232;-67
2021/12/11 16:17:32;;;;;;;3.78;3.33;;;24.40;29.00;;;;;;4707742;30;20507;-67
2021/12/11 16:20:02;;;;;;;3.65;3.28;;;24.40;29.00;;;;;;4711601;30;20100;-65
2021/12/11 16:22:33;;;;;;;;;;;24.40;29.00;;;;;;4712551;30;20507;-65
2021/12/11 16:25:07;;;;;;;3.67;3.38;;;24.40;29.00;;;;;;4701531;30;20028;-66
2021/12/11 16:27:35;;;;;;;3.38;3.03;;;24.40;29.00;;;;;;4707689;30;20088;-65
2021/12/11 16:30:06;;;;;;;4.05;3.15;;;24.40;29.00;;;;;;4725227;30;20053;-68
2021/12/11 16:32:34;;;;;;;4.68;3.35;;;24.30;28.90;;;;;;4712532;30;20057;-66
2021/12/11 16:35:05;;;;;;;3.85;3.30;;;24.30;28.90;;;;;;4704109;30;20115;-67
2021/12/11 16:37:42;;;;;;;6.20;3.70;;;24.40;29.00;;;;;;4708686;30;20510;-65
2021/12/11 16:40:16;;;;;;;2.95;2.65;;;24.30;28.90;;;;;;4711970;30;20130;-67
2021/12/11 16:43:01;;;;;;;7.28;4.55;;;24.30;28.90;;;;;;4712431;30;20115;-67
2021/12/11 16:45:30;;;;;;;4.72;4.03;;;24.30;28.90;;;;;;4714491;30;20515;-67
2021/12/11 16:47:58;;;;;;;4.28;3.88;;;24.30;28.80;;;;;;4712323;30;20477;-67
2021/12/11 16:50:28;;;;;;;3.47;3.08;;;24.30;28.80;;;;;;4713796;30;20092;-65
2021/12/11 16:52:56;;;;;;;3.58;3.17;;;24.30;28.80;;;;;;4715479;30;20049;-65
2021/12/11 16:55:25;;;;;;;4.03;3.53;;;24.30;28.80;;;;;;4703758;30;20136;-67
2021/12/11 16:57:54;;;;;;;3.83;3.28;;;24.30;28.80;;;;;;4715199;30;20061;-68
2021/12/11 17:00:24;;;;;;;3.63;3.33;;;24.30;28.80;;;;;;4714964;30;20567;-67
2021/12/11 17:02:52;;;;;;;;;;;24.30;28.80;;;;;;4729651;30;21127;-65
2021/12/11 17:05:21;;;;;;;3.47;2.92;;;24.30;28.80;;;;;;4706229;30;19996;-66
2021/12/11 17:07:48;;;;;;;3.40;3.10;;;24.40;28.90;;;;;;4714571;30;20111;-68
2021/12/11 17:10:21;;;;;;;4.50;3.60;;;24.40;28.80;;;;;;4728085;30;20061;-65
2021/12/11 17:12:48;;;;;;;3.72;3.42;;;24.50;28.80;;;;;;4715458;30;20094;-66
2021/12/11 17:15:17;;;;;;;4.60;3.88;;;24.50;28.80;;;;;;4705929;30;20110;-65
2021/12/11 17:17:44;;;;;;;3.17;2.88;;;24.50;28.80;;;;;;4714217;30;20088;-65
2021/12/11 17:20:16;;;;;;;3.22;2.90;;;24.50;28.90;;;;;;4715036;30;20057;-66
2021/12/11 17:22:46;;;;;;;4.32;3.58;;;24.40;29.00;;;;;;4715119;30;20088;-66
2021/12/11 17:25:22;;;;;;;4.22;3.35;;;24.40;29.00;;;;;;4705084;30;20148;-67
2021/12/11 17:27:51;;;;;;;3.55;3.10;;;24.30;28.90;;;;;;4713825;30;20133;-67
2021/12/11 17:30:18;;;;;;;3.78;3.28;;;24.30;29.00;;;;;;4714366;30;20061;-64
2021/12/11 17:32:45;;;;;;;3.50;3.10;;;24.30;29.10;;;;;;4715225;30;20502;-65
2021/12/11 17:35:53;;;;;;;3.60;3.10;;;24.20;29.10;;;;;;4707994;30;20049;-66
2021/12/11 17:38:20;;;;;;;3.70;2.80;;;24.20;29.20;;;;;;4714445;30;20115;-65
2021/12/11 17:40:48;;;;;;;3.80;3.00;;;24.10;29.30;;;;;;4714631;30;20122;-65
2021/12/11 17:43:15;;;;;;;4.13;3.08;;;24.10;29.30;;;;;;4714987;30;20107;-65
2021/12/11 17:45:43;;;;;;;3.13;2.83;;;24.10;29.40;;;;;;4701466;30;20152;-65
2021/12/11 17:48:13;;;;;;;3.33;3.03;;;24.10;29.50;;;;;;4714535;30;20159;-66
2021/12/11 17:50:44;;;;;;;3.75;3.08;;;24.00;29.40;;;;;;4714573;30;20193;-65
2021/12/11 17:53:12;;;;;;;4.63;2.90;;;23.90;29.40;;;;;;4714742;30;20085;-65
2021/12/11 17:55:43;;;;;;;3.72;3.13;;;24.00;29.50;;;;;;4702299;30;20140;-66
2021/12/11 17:58:14;;;;;;;4.45;3.17;;;23.90;29.50;;;;;;4714168;30;20119;-67
2021/12/11 18:00:59;;;;;;;4.07;3.20;;;23.90;29.60;;;;;;4714209;30;20116;-66
2021/12/11 18:03:28;;;;;;;3.33;2.83;;;23.90;29.60;;;;;;4714259;30;20119;-65
2021/12/11 18:06:01;;;;;;;3.67;3.10;;;23.80;29.60;;;;;;4701968;30;20487;-65
2021/12/11 18:08:31;;;;;;;3.72;2.92;;;23.80;29.70;;;;;;4727067;30;20114;-66
2021/12/11 18:11:23;;;;;;;4.22;3.30;;;23.80;29.70;;;;;;4713663;30;20095;-66
2021/12/11 18:13:59;;;;;;;2.97;2.67;;;23.80;29.80;;;;;;4714583;30;20881;-64
2021/12/11 18:16:31;;;;;;;3.90;2.60;;;23.80;29.80;;;;;;4701800;30;20132;-66
2021/12/11 18:19:21;;;;;;;3.08;2.78;;;23.80;29.90;;;;;;4726572;30;20093;-66
2021/12/11 18:21:56;;;;;;;3.58;3.00;;;23.70;29.80;;;;;;4713983;30;20111;-65
2021/12/11 18:24:25;;;;;;;5.43;3.50;;;23.70;29.90;;;;;;4708437;30;20053;-66
2021/12/11 18:26:55;;;;;;;3.97;3.15;;;23.60;30.30;;;;;;4705580;30;20119;-67
2021/12/11 18:29:25;;;;;;;;;;;23.60;29.90;;;;;;4713657;30;20053;-66
2021/12/11 18:31:55;;;;;;;4.43;3.28;;;23.60;30.00;;;;;;4714475;30;19926;-65
2021/12/11 18:34:24;;;;;;;6.20;3.60;;;23.60;30.00;;;;;;4706666;30;20134;-66
2021/12/11 18:36:55;;;;;;;4.18;3.33;;;23.50;30.00;;;;;;4705011;30;20144;-65
2021/12/11 18:39:29;;;;;;;4.18;3.60;;;23.50;30.00;;;;;;4713105;30;20119;-65
2021/12/11 18:42:05;;;;;;;4.80;3.40;;;23.50;30.00;;;;;;4714247;30;20110;-65